createdAt,value
2022-08-09T00:00:08.188Z,0.13
2022-08-09T00:02:49.051Z,0.10
2022-08-09T00:06:18.957Z,0.10
2022-08-09T00:08:11.298Z,0.20
2022-08-09T00:10:40.091Z,0.20
2022-08-09T00:13:16.813Z,0.32
2022-08-09T00:15:59.992Z,0.20
2022-08-09T00:18:34.750Z,0.20
2022-08-09T00:21:07.831Z,0.15
2022-08-09T00:23:56.599Z,0.20
2022-08-09T00:26:32.308Z,0.40
2022-08-09T00:29:01.671Z,0.10
2022-08-09T00:31:57.398Z,0.10
2022-08-09T00:34:19.163Z,0.10
2022-08-09T00:40:10.438Z,0.20
2022-08-09T00:44:10.889Z,0.25
2022-08-09T00:44:47.256Z,0.10
2022-08-09T00:47:15.577Z,0.55
2022-08-09T00:49:52.544Z,0.20
2022-08-09T00:52:28.056Z,0.20
2022-08-09T00:55:00.275Z,0.10
2022-08-09T00:57:34.300Z,0.10
2022-08-09T01:00:21.264Z,0.20
2022-08-09T01:02:51.989Z,0.10
2022-08-09T01:05:46.454Z,0.17
2022-08-09T01:08:26.660Z,0.32
2022-08-09T01:11:09.378Z,0.10
2022-08-09T01:14:00.202Z,0.10
2022-08-09T01:16:47.285Z,0.20
2022-08-09T01:19:39.928Z,0.20
2022-08-09T01:22:21.698Z,0.20
2022-08-09T01:24:52.159Z,0.20
2022-08-09T01:27:20.318Z,0.15
2022-08-09T01:29:56.305Z,0.10
2022-08-09T01:32:39.057Z,0.10
2022-08-09T01:35:38.337Z,0.10
2022-08-09T01:38:15.395Z,0.10
2022-08-09T01:40:53.126Z,0.10
2022-08-09T01:43:51.013Z,0.10
2022-08-09T01:46:25.127Z,0.25
2022-08-09T01:48:59.879Z,0.10
2022-08-09T01:51:28.631Z,0.20
2022-08-09T01:54:07.280Z,0.20
2022-08-09T01:56:35.466Z,1.75
2022-08-09T01:59:07.930Z,0.10
2022-08-09T02:01:59.231Z,0.20
2022-08-09T02:04:23.567Z,0.10
2022-08-09T02:07:17.803Z,0.40
2022-08-09T02:10:29.778Z,0.10
2022-08-09T02:15:27.266Z,0.20
2022-08-09T02:18:15.627Z,0.10
2022-08-09T02:20:45.825Z,0.15
2022-08-09T02:23:42.952Z,0.10
2022-08-09T02:26:27.170Z,0.20
2022-08-09T02:28:57.846Z,0.10
2022-08-09T02:31:36.299Z,0.10
2022-08-09T02:34:13.626Z,0.15
2022-08-09T02:36:54.236Z,2.03
2022-08-09T02:39:33.532Z,0.10
2022-08-09T02:42:09.183Z,0.30
2022-08-09T02:44:38.334Z,0.20
2022-08-09T02:47:07.398Z,0.22
2022-08-09T02:49:41.690Z,0.25
2022-08-09T02:52:13.044Z,0.20
2022-08-09T02:54:54.016Z,0.10
2022-08-09T02:57:24.950Z,0.13
2022-08-09T03:00:20.590Z,0.20
2022-08-09T03:02:58.046Z,0.10
2022-08-09T03:05:28.381Z,0.15
2022-08-09T03:07:55.795Z,0.10
2022-08-09T03:10:25.162Z,0.38
2022-08-09T03:12:52.774Z,0.20
2022-08-09T03:15:20.866Z,0.28
2022-08-09T03:17:58.047Z,0.10
2022-08-09T03:20:29.632Z,0.10
2022-08-09T03:22:58.278Z,0.10
2022-08-09T03:26:03.260Z,0.20
2022-08-09T03:28:15.430Z,0.30
2022-08-09T03:30:44.058Z,0.50
2022-08-09T03:33:18.676Z,0.10
2022-08-09T03:38:35.622Z,0.10
2022-08-09T03:41:04.294Z,0.13
2022-08-09T03:43:31.750Z,0.10
2022-08-09T03:46:03.949Z,0.10
2022-08-09T03:48:51.619Z,0.43
2022-08-09T03:51:57.588Z,0.38
2022-08-09T03:54:11.135Z,0.28
2022-08-09T03:56:41.171Z,0.10
2022-08-09T03:59:17.055Z,0.20
2022-08-09T04:01:49.331Z,0.17
2022-08-09T04:04:17.011Z,0.10
2022-08-09T04:06:49.112Z,0.32
2022-08-09T04:09:47.655Z,1.55
2022-08-09T04:12:30.800Z,0.20
2022-08-09T04:15:01.555Z,0.10
2022-08-09T04:17:29.853Z,0.10
2022-08-09T04:19:56.765Z,0.35
2022-08-09T04:22:23.771Z,0.10
2022-08-09T04:24:50.519Z,0.25
2022-08-09T04:27:22.101Z,0.25
2022-08-09T04:29:50.988Z,0.13
2022-08-09T04:32:23.509Z,0.25
2022-08-09T04:34:58.520Z,0.20
2022-08-09T04:37:45.647Z,0.25
2022-08-09T04:40:19.193Z,0.40
2022-08-09T04:42:48.591Z,0.43
2022-08-09T04:45:20.392Z,0.10
2022-08-09T04:48:00.994Z,0.20
2022-08-09T04:50:31.914Z,0.10
2022-08-09T04:53:02.156Z,0.20
2022-08-09T04:55:37.860Z,0.10
2022-08-09T04:58:09.687Z,0.22
2022-08-09T05:00:36.896Z,0.30
2022-08-09T05:03:40.635Z,0.20
2022-08-09T05:06:06.863Z,0.20
2022-08-09T05:08:35.108Z,0.17
2022-08-09T05:11:02.729Z,0.17
2022-08-09T05:13:32.892Z,0.22
2022-08-09T05:16:00.928Z,0.20
2022-08-09T05:18:39.558Z,0.10
2022-08-09T05:21:22.840Z,0.32
2022-08-09T05:23:59.530Z,0.10
2022-08-09T05:26:45.344Z,0.10
2022-08-09T05:29:22.149Z,0.20
2022-08-09T05:31:56.745Z,0.20
2022-08-09T05:34:30.188Z,0.10
2022-08-09T05:37:06.489Z,0.10
2022-08-09T05:39:36.038Z,0.10
2022-08-09T05:42:17.662Z,0.52
2022-08-09T05:44:50.429Z,0.10
2022-08-09T05:47:19.147Z,0.10
2022-08-09T05:50:25.456Z,0.10
2022-08-09T05:52:33.023Z,0.10
2022-08-09T05:55:06.826Z,0.10
2022-08-09T05:57:55.511Z,0.13
2022-08-09T06:00:22.140Z,0.10
2022-08-09T06:02:49.147Z,0.20
2022-08-09T06:05:31.067Z,0.30
2022-08-09T06:08:09.260Z,0.30
2022-08-09T06:10:38.529Z,0.32
2022-08-09T06:13:20.194Z,0.20
2022-08-09T06:15:51.271Z,0.22
2022-08-09T06:18:24.923Z,0.20
2022-08-09T06:20:57.107Z,0.57
2022-08-09T06:23:55.033Z,0.20
2022-08-09T06:26:14.391Z,0.85
2022-08-09T06:28:43.380Z,0.30
2022-08-09T06:31:10.561Z,0.10
2022-08-09T06:33:40.579Z,0.20
2022-08-09T06:36:09.468Z,0.20
2022-08-09T06:38:38.782Z,0.32
2022-08-09T06:41:18.863Z,0.10
2022-08-09T06:43:48.264Z,6.22
2022-08-09T06:46:40.107Z,0.10
2022-08-09T06:49:02.782Z,0.20
2022-08-09T06:51:39.055Z,0.20
2022-08-09T06:54:09.268Z,0.20
2022-08-09T06:56:45.376Z,0.20
2022-08-09T07:00:50.760Z,0.20
2022-08-09T07:02:03.694Z,0.30
2022-08-09T07:04:31.951Z,0.40
2022-08-09T07:07:00.291Z,0.20
2022-08-09T07:09:56.050Z,0.10
2022-08-09T07:14:51.286Z,0.20
2022-08-09T07:17:21.500Z,0.20
2022-08-09T07:19:50.653Z,0.20
2022-08-09T07:22:18.659Z,0.50
2022-08-09T07:25:01.403Z,0.25
2022-08-09T07:27:34.436Z,0.20
2022-08-09T07:30:13.416Z,0.35
2022-08-09T07:32:41.524Z,0.25
2022-08-09T07:35:12.329Z,0.30
2022-08-09T07:40:27.078Z,0.20
2022-08-09T07:43:00.817Z,0.50
2022-08-09T07:45:39.422Z,0.75
2022-08-09T07:48:28.781Z,0.40
2022-08-09T07:51:10.372Z,0.63
2022-08-09T07:54:05.072Z,0.82
2022-08-09T07:56:33.902Z,0.38
2022-08-09T07:59:01.137Z,0.43
2022-08-09T08:01:34.316Z,0.95
2022-08-09T08:04:02.628Z,0.40
2022-08-09T08:06:31.584Z,0.20
2022-08-09T08:09:03.511Z,0.30
2022-08-09T08:12:23.870Z,0.28
2022-08-09T08:14:18.583Z,0.38
2022-08-09T08:17:00.751Z,0.75
2022-08-09T08:19:35.057Z,0.52
2022-08-09T08:22:02.321Z,0.30
2022-08-09T08:24:34.201Z,0.30
2022-08-09T08:27:06.821Z,0.98
2022-08-09T08:29:48.600Z,0.50
2022-08-09T08:32:24.153Z,0.40
2022-08-09T08:34:58.504Z,0.30
2022-08-09T08:37:41.135Z,0.40
2022-08-09T08:40:16.322Z,0.40
2022-08-09T08:42:47.322Z,0.50
2022-08-09T08:45:14.809Z,0.40
2022-08-09T08:47:45.221Z,0.30
2022-08-09T08:50:18.266Z,0.95
2022-08-09T08:52:59.485Z,0.57
2022-08-09T08:55:27.834Z,0.22
2022-08-09T08:57:57.262Z,0.25
2022-08-09T09:00:30.556Z,0.57
2022-08-09T09:03:11.486Z,0.20
2022-08-09T09:06:00.786Z,0.32
2022-08-09T09:08:38.110Z,0.38
2022-08-09T09:11:08.945Z,0.30
2022-08-09T09:13:56.282Z,1.13
2022-08-09T09:16:34.583Z,0.20
2022-08-09T09:19:22.767Z,0.40
2022-08-09T09:22:11.586Z,0.40
2022-08-09T09:24:59.100Z,0.30
2022-08-09T09:28:06.931Z,0.50
2022-08-09T09:30:41.334Z,0.47
2022-08-09T09:33:16.782Z,0.20
2022-08-09T09:36:01.585Z,0.47
2022-08-09T09:38:51.548Z,0.22
2022-08-09T09:41:32.546Z,0.90
2022-08-09T09:44:12.890Z,0.20
2022-08-09T09:46:50.429Z,0.30
2022-08-09T09:49:56.028Z,0.30
2022-08-09T09:52:16.327Z,0.30
2022-08-09T09:55:23.734Z,0.20
2022-08-09T09:58:07.565Z,0.75
2022-08-09T10:00:55.925Z,0.38
2022-08-09T10:03:39.807Z,0.50
2022-08-09T10:06:07.061Z,0.30
2022-08-09T10:08:43.226Z,0.50
2022-08-09T10:12:01.413Z,0.30
2022-08-09T10:14:30.557Z,0.30
2022-08-09T10:17:38.700Z,0.40
2022-08-09T10:19:47.172Z,0.47
2022-08-09T10:22:38.994Z,0.55
2022-08-09T10:25:12.538Z,0.40
2022-08-09T10:27:55.803Z,0.82
2022-08-09T10:32:13.572Z,0.38
2022-08-09T10:34:05.192Z,0.30
2022-08-09T10:36:01.194Z,2.33
2022-08-09T10:38:55.489Z,0.40
2022-08-09T10:41:20.679Z,0.20
2022-08-09T10:43:58.664Z,0.40
2022-08-09T10:46:55.213Z,4.93
2022-08-09T10:49:50.977Z,0.25
2022-08-09T10:52:42.610Z,0.60
2022-08-09T10:55:25.792Z,0.55
2022-08-09T10:57:55.404Z,0.50
2022-08-09T11:00:29.312Z,0.63
2022-08-09T11:03:46.884Z,0.40
2022-08-09T11:06:18.506Z,0.30
2022-08-09T11:08:51.165Z,0.20
2022-08-09T11:11:19.964Z,0.40
2022-08-09T11:13:50.104Z,7.82
2022-08-09T11:16:40.771Z,0.40
2022-08-09T11:19:10.131Z,0.60
2022-08-09T11:22:10.865Z,0.40
2022-08-09T11:25:08.382Z,0.30
2022-08-09T11:28:03.744Z,0.35
2022-08-09T11:30:38.045Z,0.35
2022-08-09T11:33:08.087Z,0.40
2022-08-09T11:35:55.626Z,0.47
2022-08-09T11:38:28.814Z,0.22
2022-08-09T11:41:37.866Z,0.45
2022-08-09T11:44:06.983Z,0.28
2022-08-09T11:46:54.269Z,0.30
2022-08-09T11:50:55.070Z,0.50
2022-08-09T11:53:15.941Z,0.35
2022-08-09T11:55:53.889Z,1.40
2022-08-09T11:58:32.399Z,0.30
2022-08-09T12:01:08.738Z,0.30
2022-08-09T12:03:56.684Z,0.40
2022-08-09T12:06:32.758Z,1.65
2022-08-09T12:09:17.582Z,0.60
2022-08-09T12:12:03.482Z,0.43
2022-08-09T12:14:40.977Z,0.50
2022-08-09T12:17:34.336Z,0.43
2022-08-09T12:20:21.378Z,0.45
2022-08-09T12:23:01.230Z,0.30
2022-08-09T12:25:37.457Z,1.10
2022-08-09T12:29:13.569Z,0.35
2022-08-09T12:31:58.983Z,0.25
2022-08-09T12:34:05.307Z,0.30
2022-08-09T12:36:33.758Z,0.63
2022-08-09T12:39:04.296Z,0.47
2022-08-09T12:41:39.171Z,0.73
2022-08-09T12:44:10.170Z,1.27
2022-08-09T12:46:49.075Z,0.60
2022-08-09T12:49:17.287Z,0.30
2022-08-09T12:52:02.850Z,0.50
2022-08-09T12:56:12.926Z,0.32
2022-08-09T12:57:36.583Z,0.88
2022-08-09T13:00:25.118Z,0.40
2022-08-09T13:03:01.002Z,0.30
2022-08-09T13:05:51.699Z,0.52
2022-08-09T13:08:40.158Z,0.40
2022-08-09T13:11:13.068Z,0.68
2022-08-09T13:14:40.976Z,0.40
2022-08-09T13:17:04.063Z,0.80
2022-08-09T13:20:10.518Z,0.43
2022-08-09T13:22:36.328Z,0.50
2022-08-09T13:25:14.701Z,0.40
2022-08-09T13:27:54.343Z,0.35
2022-08-09T13:30:49.425Z,0.40
2022-08-09T13:33:11.677Z,0.30
2022-08-09T13:36:39.025Z,0.40
2022-08-09T13:38:46.073Z,0.55
2022-08-09T13:41:57.551Z,0.73
2022-08-09T13:44:13.728Z,0.50
2022-08-09T13:47:29.287Z,0.63
2022-08-09T13:49:37.581Z,0.90
2022-08-09T13:52:05.638Z,0.30
2022-08-09T13:54:36.473Z,0.50
2022-08-09T13:57:35.127Z,0.52
2022-08-09T13:59:58.291Z,0.60
2022-08-09T14:02:26.149Z,0.40
2022-08-09T14:04:59.645Z,0.20
2022-08-09T14:07:30.324Z,0.43
2022-08-09T14:10:17.167Z,0.40
2022-08-09T14:12:55.909Z,0.65
2022-08-09T14:16:09.284Z,0.30
2022-08-09T14:18:19.514Z,0.52
2022-08-09T14:20:46.885Z,1.58
2022-08-09T14:23:20.367Z,0.57
2022-08-09T14:25:52.031Z,0.40
2022-08-09T14:28:19.304Z,0.60
2022-08-09T14:30:47.838Z,0.47
2022-08-09T14:33:20.827Z,0.40
2022-08-09T14:35:52.406Z,0.47
2022-08-09T14:38:20.045Z,0.43
2022-08-09T14:41:02.034Z,0.38
2022-08-09T14:43:47.754Z,0.40
2022-08-09T14:46:54.753Z,0.30
2022-08-09T14:49:10.514Z,0.32
2022-08-09T14:51:42.008Z,0.30
2022-08-09T14:54:09.623Z,0.35
2022-08-09T14:56:57.280Z,0.50
2022-08-09T14:59:23.703Z,0.38
2022-08-09T15:01:50.450Z,0.68
2022-08-09T15:04:17.157Z,0.60
2022-08-09T15:06:49.730Z,0.40
2022-08-09T15:09:16.842Z,0.47
2022-08-09T15:12:04.963Z,0.40
2022-08-09T15:14:38.531Z,0.40
2022-08-09T15:17:09.834Z,0.40
2022-08-09T15:19:54.391Z,0.60
2022-08-09T15:22:26.078Z,0.75
2022-08-09T15:24:53.934Z,0.50
2022-08-09T15:27:21.246Z,1.98
2022-08-09T15:30:57.627Z,3.85
2022-08-09T15:32:35.799Z,0.38
2022-08-09T15:35:40.293Z,0.85
2022-08-09T15:37:57.169Z,0.43
2022-08-09T15:40:37.236Z,0.50
2022-08-09T15:43:10.248Z,0.90
2022-08-09T15:46:07.219Z,1.90
2022-08-09T15:48:29.126Z,2.53
2022-08-09T15:50:58.049Z,2.60
2022-08-09T15:54:03.357Z,3.20
2022-08-09T15:56:21.643Z,4.03
2022-08-09T15:59:05.337Z,4.75
2022-08-09T16:01:35.530Z,5.43
2022-08-09T16:04:03.351Z,7.20
2022-08-09T16:06:35.782Z,8.48
2022-08-09T16:09:05.885Z,9.23
2022-08-09T16:11:33.233Z,15.98
2022-08-09T16:14:04.727Z,10.40
2022-08-09T16:16:37.205Z,11.05
2022-08-09T16:19:06.078Z,11.13
2022-08-09T16:21:35.619Z,10.95
2022-08-09T16:24:04.718Z,10.40
2022-08-09T16:26:35.254Z,10.60
2022-08-09T16:29:10.407Z,10.25
2022-08-09T16:32:18.924Z,10.18
2022-08-09T16:34:24.963Z,11.13
2022-08-09T16:36:51.750Z,10.98
2022-08-09T16:39:19.278Z,11.15
2022-08-09T16:42:02.690Z,9.82
2022-08-09T16:44:32.375Z,9.45
2022-08-09T16:47:04.107Z,9.70
2022-08-09T16:50:29.192Z,8.60
2022-08-09T16:52:34.805Z,8.30
2022-08-09T16:55:01.679Z,7.30
2022-08-09T16:58:08.243Z,7.00
2022-08-09T17:00:16.058Z,6.40
2022-08-09T17:02:43.918Z,6.20
2022-08-09T17:05:19.644Z,5.60
2022-08-09T17:08:43.014Z,5.20
2022-08-09T17:10:34.129Z,4.97
2022-08-09T17:13:03.419Z,4.88
2022-08-09T17:15:59.203Z,6.70
2022-08-09T17:18:27.059Z,4.28
2022-08-09T17:23:37.089Z,3.40
2022-08-09T17:28:39.373Z,2.92
2022-08-09T17:31:06.062Z,1.48
2022-08-09T17:33:35.974Z,0.93
2022-08-09T17:36:05.393Z,1.00
2022-08-09T17:38:39.395Z,0.63
2022-08-09T17:41:08.029Z,0.40
2022-08-09T17:43:37.283Z,0.30
2022-08-09T17:46:09.110Z,0.90
2022-08-09T17:48:46.617Z,0.85
2022-08-09T17:51:20.077Z,0.50
2022-08-09T17:53:53.042Z,0.43
2022-08-09T17:56:29.131Z,0.47
2022-08-09T17:59:03.166Z,0.50
2022-08-09T18:01:57.951Z,0.43
2022-08-09T18:04:22.641Z,0.30
2022-08-09T18:06:54.443Z,0.20
2022-08-09T18:09:23.131Z,0.40
2022-08-09T18:12:14.823Z,0.30
2022-08-09T18:14:49.879Z,0.57
2022-08-09T18:17:18.569Z,0.38
2022-08-09T18:20:54.368Z,0.68
2022-08-09T18:22:40.306Z,0.57
2022-08-09T18:25:17.768Z,0.50
2022-08-09T18:28:05.332Z,0.45
2022-08-09T18:30:48.905Z,0.30
2022-08-09T18:33:16.441Z,2.97
2022-08-09T18:35:59.027Z,0.40
2022-08-09T18:38:27.726Z,0.52
2022-08-09T18:40:55.454Z,1.48
2022-08-09T18:43:22.982Z,0.22
2022-08-09T18:46:47.019Z,0.32
2022-08-09T18:48:37.090Z,0.30
2022-08-09T18:51:05.015Z,0.32
2022-08-09T18:53:56.981Z,3.13
2022-08-09T18:56:27.183Z,0.40
2022-08-09T18:58:56.555Z,0.30
2022-08-09T19:01:24.095Z,0.20
2022-08-09T19:03:54.659Z,0.43
2022-08-09T19:06:28.737Z,0.10
2022-08-09T19:09:02.638Z,0.15
2022-08-09T19:11:37.813Z,0.52
2022-08-09T19:14:06.706Z,0.20
2022-08-09T19:16:36.316Z,0.22
2022-08-09T19:19:25.047Z,0.30
2022-08-09T19:22:06.321Z,0.30
2022-08-09T19:24:38.295Z,0.50
2022-08-09T19:27:07.556Z,0.28
2022-08-09T19:30:21.183Z,0.17
2022-08-09T19:32:26.673Z,0.40
2022-08-09T19:34:58.414Z,0.20
2022-08-09T19:37:25.653Z,0.30
2022-08-09T19:40:04.776Z,0.20
2022-08-09T19:42:32.647Z,1.83
2022-08-09T19:44:59.605Z,0.20
2022-08-09T19:47:27.133Z,0.45
2022-08-09T19:50:07.977Z,0.22
2022-08-09T19:52:49.638Z,0.15
2022-08-09T19:55:30.468Z,0.20
2022-08-09T19:57:57.718Z,0.30
2022-08-09T20:00:24.427Z,0.10
2022-08-09T20:04:10.992Z,0.20
2022-08-09T20:05:45.991Z,0.20
2022-08-09T20:08:16.152Z,0.75
2022-08-09T20:10:52.506Z,0.30
2022-08-09T20:13:21.150Z,0.35
2022-08-09T20:16:35.773Z,0.20
2022-08-09T20:18:35.050Z,0.30
2022-08-09T20:21:02.260Z,0.40
2022-08-09T20:23:39.820Z,0.63
2022-08-09T20:26:08.039Z,0.50
2022-08-09T20:28:47.713Z,0.20
2022-08-09T20:31:15.779Z,0.30
2022-08-09T20:33:44.310Z,0.10
2022-08-09T20:36:12.440Z,0.17
2022-08-09T20:41:35.019Z,0.20
2022-08-09T20:44:09.797Z,0.20
2022-08-09T20:46:43.374Z,0.75
2022-08-09T20:49:13.008Z,0.20
2022-08-09T20:51:42.318Z,0.35
2022-08-09T20:54:16.641Z,0.63
2022-08-09T20:56:46.818Z,0.10
2022-08-09T21:01:51.028Z,0.20
2022-08-09T21:05:52.070Z,0.13
2022-08-09T21:07:11.751Z,0.13
2022-08-09T21:09:55.543Z,0.20
2022-08-09T21:15:12.905Z,0.40
2022-08-09T21:18:21.398Z,0.57
2022-08-09T21:20:30.028Z,0.20
2022-08-09T21:22:58.387Z,1.17
2022-08-09T21:25:55.850Z,0.10
2022-08-09T21:28:36.258Z,0.73
2022-08-09T21:31:13.761Z,0.50
2022-08-09T21:33:51.019Z,0.20
2022-08-09T21:36:25.719Z,0.20
2022-08-09T21:38:56.678Z,0.10
2022-08-09T21:42:05.400Z,0.20
2022-08-09T21:44:32.879Z,0.30
2022-08-09T21:47:04.706Z,0.40
2022-08-09T21:49:39.656Z,0.25
2022-08-09T21:52:16.297Z,0.20
2022-08-09T21:55:03.206Z,0.82
2022-08-09T21:57:38.894Z,1.17
2022-08-09T22:00:26.830Z,0.20
2022-08-09T22:03:02.465Z,0.38
2022-08-09T22:05:35.431Z,0.20
2022-08-09T22:08:06.161Z,0.20
2022-08-09T22:10:33.155Z,0.45
2022-08-09T22:13:07.222Z,0.30
2022-08-09T22:15:39.688Z,0.10
2022-08-09T22:18:08.334Z,0.57
2022-08-09T22:20:39.766Z,0.20
2022-08-09T22:23:10.429Z,0.20
2022-08-09T22:26:05.501Z,5.28
2022-08-09T22:28:32.948Z,0.45
2022-08-09T22:31:00.808Z,0.57
2022-08-09T22:33:37.683Z,0.20
2022-08-09T22:36:15.062Z,0.15
2022-08-09T22:38:46.986Z,0.20
2022-08-09T22:41:13.710Z,0.20
2022-08-09T22:44:01.472Z,0.20
2022-08-09T22:48:16.014Z,0.20
2022-08-09T22:49:14.030Z,0.35
2022-08-09T22:51:43.551Z,0.93
2022-08-09T22:54:16.801Z,0.28
2022-08-09T22:56:50.888Z,0.20
2022-08-09T22:59:55.675Z,0.30
2022-08-09T23:02:10.715Z,0.32
2022-08-09T23:04:42.428Z,0.20
2022-08-09T23:08:21.072Z,0.20
2022-08-09T23:10:14.608Z,4.13
2022-08-09T23:12:41.329Z,0.20
2022-08-09T23:15:08.303Z,0.10
2022-08-09T23:17:35.257Z,0.10
2022-08-09T23:20:07.808Z,0.20
2022-08-09T23:22:35.753Z,0.20
2022-08-09T23:25:04.687Z,0.50
2022-08-09T23:27:32.068Z,0.30
2022-08-09T23:29:59.197Z,0.17
2022-08-09T23:32:25.903Z,0.13
2022-08-09T23:34:52.565Z,0.15
2022-08-09T23:37:21.361Z,0.20
2022-08-09T23:39:48.644Z,0.10
2022-08-09T23:42:15.517Z,0.38
2022-08-09T23:44:42.273Z,0.20
2022-08-09T23:47:09.040Z,0.20
2022-08-09T23:49:35.666Z,0.45
2022-08-09T23:52:02.385Z,0.20
2022-08-09T23:54:29.082Z,0.10
2022-08-09T23:56:58.272Z,0.20
2022-08-09T23:59:25.635Z,0.20
